Time;durP1;ratioP1;P1;durP2;ratioP2;P2;SDS_P1;SDS_P2;PMS_P1;PMS_P2;Temp;Humidity;BMP_temperature;BMP_pressure;BME280_temperature;BME280_humidity;BME280_pressure;Samples;Min_cycle;Max_cycle;Signal;HPM_P1;HPM_P2
2020/01/25 00:00:46;;;;;;;28.75;16.35;;;;;;;-1.05;83.74023;95609.23;;;;
2020/01/25 00:02:57;;;;;;;28.75;16.35;;;;;;;-1.05;83.74023;95609.23;;;;
2020/01/25 00:03:59;;;;;;;28.75;16.35;;;;;;;-1.05;83.74023;95609.23;;;;
2020/01/25 00:05:00;;;;;;;28.75;16.35;;;;;;;-1.05;83.74023;95609.23;;;;
2020/01/25 00:06:00;;;;;;;28.75;16.35;;;;;;;-1.05;83.74023;95609.23;;;;
2020/01/25 00:07:04;;;;;;;36.25;17.3;;;;;;;-1.17;83.27246;95606.44;;;;
2020/01/25 00:08:04;;;;;;;36.25;17.3;;;;;;;-1.17;83.27246;95606.44;;;;
2020/01/25 00:09:16;;;;;;;37.45;19.65;;;;;;;-1.14;83.71387;95601.33;;;;
2020/01/25 00:10:21;;;;;;;37.45;19.65;;;;;;;-1.14;83.71387;95601.33;;;;
2020/01/25 00:11:22;;;;;;;37.45;19.65;;;;;;;-1.14;83.71387;95601.33;;;;
2020/01/25 00:12:23;;;;;;;37.45;19.65;;;;;;;-1.14;83.71387;95601.33;;;;
2020/01/25 00:13:23;;;;;;;37.45;19.65;;;;;;;-1.14;83.71387;95601.33;;;;
2020/01/25 00:14:24;;;;;;;37.45;19.65;;;;;;;-1.14;83.71387;95601.33;;;;
2020/01/25 00:15:25;;;;;;;37.45;19.65;;;;;;;-1.14;83.71387;95601.33;;;;
2020/01/25 00:16:38;;;;;;;37.45;19.65;;;;;;;-1.14;83.71387;95601.33;;;;
2020/01/25 00:18:13;;;;;;;37.45;19.65;;;;;;;-1.14;83.71387;95601.33;;;;
2020/01/25 00:19:17;;;;;;;37.45;19.65;;;;;;;-1.14;83.71387;95601.33;;;;
2020/01/25 00:20:29;;;;;;;36.35;16.25;;;;;;;-1.25;83.18262;95596.71;;;;
2020/01/25 00:21:29;;;;;;;36.35;16.25;;;;;;;-1.25;83.18262;95596.71;;;;
2020/01/25 00:22:33;;;;;;;32.25;16.55;;;;;;;-1.22;83.69922;95595.48;;;;
2020/01/25 00:23:36;;;;;;;32.25;16.55;;;;;;;-1.22;83.69922;95595.48;;;;
2020/01/25 00:24:36;;;;;;;32.25;16.55;;;;;;;-1.22;83.69922;95595.48;;;;
2020/01/25 00:25:37;;;;;;;32.25;16.55;;;;;;;-1.22;83.69922;95595.48;;;;
2020/01/25 00:26:38;;;;;;;32.25;16.55;;;;;;;-1.22;83.69922;95595.48;;;;
2020/01/25 00:27:45;;;;;;;32.25;16.55;;;;;;;-1.22;83.69922;95595.48;;;;
2020/01/25 00:28:55;;;;;;;32.25;16.55;;;;;;;-1.22;83.69922;95595.48;;;;
2020/01/25 00:29:56;;;;;;;32.25;16.55;;;;;;;-1.22;83.69922;95595.48;;;;
2020/01/25 00:30:59;;;;;;;32.25;16.55;;;;;;;-1.22;83.69922;95595.48;;;;
2020/01/25 00:32:03;;;;;;;32.25;16.55;;;;;;;-1.22;83.69922;95595.48;;;;
2020/01/25 00:33:04;;;;;;;29.6;13.4;;;;;;;-1.3;83.10059;95606.95;;;;
2020/01/25 00:34:13;;;;;;;29.6;13.4;;;;;;;-1.3;83.10059;95606.95;;;;
2020/01/25 00:35:21;;;;;;;29.6;13.4;;;;;;;-1.3;83.10059;95606.95;;;;
2020/01/25 00:36:22;;;;;;;28.85;15.05;;;;;;;-1.27;83.51074;95606.2;;;;
2020/01/25 00:37:23;;;;;;;28.85;15.05;;;;;;;-1.27;83.51074;95606.2;;;;
2020/01/25 00:38:24;;;;;;;28.85;15.05;;;;;;;-1.27;83.51074;95606.2;;;;
2020/01/25 00:39:25;;;;;;;28.85;15.05;;;;;;;-1.27;83.51074;95606.2;;;;
2020/01/25 00:40:29;;;;;;;28.85;15.05;;;;;;;-1.27;83.51074;95606.2;;;;
2020/01/25 00:41:30;;;;;;;28.85;15.05;;;;;;;-1.27;83.51074;95606.2;;;;
2020/01/25 00:42:31;;;;;;;28.85;15.05;;;;;;;-1.27;83.51074;95606.2;;;;
2020/01/25 00:43:32;;;;;;;28.85;15.05;;;;;;;-1.27;83.51074;95606.2;;;;
2020/01/25 00:44:35;;;;;;;28.85;15.05;;;;;;;-1.27;83.51074;95606.2;;;;
2020/01/25 00:45:36;;;;;;;28.85;15.05;;;;;;;-1.27;83.51074;95606.2;;;;
2020/01/25 00:46:37;;;;;;;29.35;13.95;;;;;;;-1.39;83.05273;95605.66;;;;
2020/01/25 00:47:38;;;;;;;29.35;13.95;;;;;;;-1.39;83.05273;95605.66;;;;
2020/01/25 00:48:39;;;;;;;29.35;13.95;;;;;;;-1.39;83.05273;95605.66;;;;
2020/01/25 00:49:47;;;;;;;29.6;14.45;;;;;;;-1.36;83.49414;95607.56;;;;
2020/01/25 00:50:47;;;;;;;29.6;14.45;;;;;;;-1.36;83.49414;95607.56;;;;
2020/01/25 00:51:48;;;;;;;29.6;14.45;;;;;;;-1.36;83.49414;95607.56;;;;
2020/01/25 00:52:49;;;;;;;29.6;14.45;;;;;;;-1.36;83.49414;95607.56;;;;
2020/01/25 00:53:49;;;;;;;29.6;14.45;;;;;;;-1.36;83.49414;95607.56;;;;
2020/01/25 00:54:49;;;;;;;29.6;14.45;;;;;;;-1.36;83.49414;95607.56;;;;
2020/01/25 00:57:52;;;;;;;29.6;14.45;;;;;;;-1.36;83.49414;95607.56;;;;
2020/01/25 00:58:52;;;;;;;29.6;14.45;;;;;;;-1.36;83.49414;95607.56;;;;
2020/01/25 00:59:53;;;;;;;22.7;11.7;;;;;;;-1.44;83.01074;95616.38;;;;
2020/01/25 01:00:55;;;;;;;22.7;11.7;;;;;;;-1.44;83.01074;95616.38;;;;
2020/01/25 01:02:13;;;;;;;30.55;14.3;;;;;;;-1.42;83.46289;95620.51;;;;
2020/01/25 01:03:14;;;;;;;30.55;14.3;;;;;;;-1.42;83.46289;95620.51;;;;
2020/01/25 01:04:16;;;;;;;30.55;14.3;;;;;;;-1.42;83.46289;95620.51;;;;
2020/01/25 01:05:23;;;;;;;30.55;14.3;;;;;;;-1.42;83.46289;95620.51;;;;
2020/01/25 01:06:43;;;;;;;30.55;14.3;;;;;;;-1.42;83.46289;95620.51;;;;
2020/01/25 01:07:43;;;;;;;30.55;14.3;;;;;;;-1.42;83.46289;95620.51;;;;
2020/01/25 01:08:44;;;;;;;30.55;14.3;;;;;;;-1.42;83.46289;95620.51;;;;
2020/01/25 01:09:46;;;;;;;30.55;14.3;;;;;;;-1.42;83.46289;95620.51;;;;
2020/01/25 01:10:47;;;;;;;30.55;14.3;;;;;;;-1.42;83.46289;95620.51;;;;
2020/01/25 01:11:47;;;;;;;30.55;14.3;;;;;;;-1.42;83.46289;95620.51;;;;
2020/01/25 01:12:49;;;;;;;17.95;9.45;;;;;;;-1.49;83.01172;95616.82;;;;
2020/01/25 01:13:50;;;;;;;17.95;9.45;;;;;;;-1.49;83.01172;95616.82;;;;
2020/01/25 01:14:51;;;;;;;17.95;9.45;;;;;;;-1.49;83.01172;95616.82;;;;
2020/01/25 01:15:51;;;;;;;19.3;10.8;;;;;;;-1.45;83.43262;95620.89;;;;
2020/01/25 01:16:52;;;;;;;19.3;10.8;;;;;;;-1.45;83.43262;95620.89;;;;
2020/01/25 01:17:53;;;;;;;19.3;10.8;;;;;;;-1.45;83.43262;95620.89;;;;
2020/01/25 01:18:53;;;;;;;19.3;10.8;;;;;;;-1.45;83.43262;95620.89;;;;
2020/01/25 01:19:54;;;;;;;19.3;10.8;;;;;;;-1.45;83.43262;95620.89;;;;
2020/01/25 01:20:54;;;;;;;19.3;10.8;;;;;;;-1.45;83.43262;95620.89;;;;
2020/01/25 01:21:55;;;;;;;19.3;10.8;;;;;;;-1.45;83.43262;95620.89;;;;
2020/01/25 01:22:55;;;;;;;19.3;10.8;;;;;;;-1.45;83.43262;95620.89;;;;
2020/01/25 01:23:56;;;;;;;19.3;10.8;;;;;;;-1.45;83.43262;95620.89;;;;
2020/01/25 01:24:57;;;;;;;19.3;10.8;;;;;;;-1.45;83.43262;95620.89;;;;
2020/01/25 01:25:59;;;;;;;16.65;8.65;;;;;;;-1.54;83.03223;95604.61;;;;
2020/01/25 01:27:01;;;;;;;16.65;8.65;;;;;;;-1.54;83.03223;95604.61;;;;
2020/01/25 01:28:02;;;;;;;16.65;8.65;;;;;;;-1.54;83.03223;95604.61;;;;
2020/01/25 01:29:03;;;;;;;16.9;10.05;;;;;;;-1.51;83.45313;95603;;;;
2020/01/25 01:30:04;;;;;;;16.9;10.05;;;;;;;-1.51;83.45313;95603;;;;
2020/01/25 01:31:04;;;;;;;16.9;10.05;;;;;;;-1.51;83.45313;95603;;;;
2020/01/25 01:32:09;;;;;;;16.9;10.05;;;;;;;-1.51;83.45313;95603;;;;
2020/01/25 01:33:11;;;;;;;16.9;10.05;;;;;;;-1.51;83.45313;95603;;;;
2020/01/25 01:34:12;;;;;;;16.9;10.05;;;;;;;-1.51;83.45313;95603;;;;
2020/01/25 01:35:13;;;;;;;16.9;10.05;;;;;;;-1.51;83.45313;95603;;;;
2020/01/25 01:36:13;;;;;;;16.9;10.05;;;;;;;-1.51;83.45313;95603;;;;
2020/01/25 01:37:17;;;;;;;16.9;10.05;;;;;;;-1.51;83.45313;95603;;;;
2020/01/25 01:38:19;;;;;;;16.9;10.05;;;;;;;-1.51;83.45313;95603;;;;
2020/01/25 01:39:21;;;;;;;14.55;8.75;;;;;;;-1.58;83.0166;95608.48;;;;
2020/01/25 01:40:41;;;;;;;14.55;8.75;;;;;;;-1.58;83.0166;95608.48;;;;
2020/01/25 01:41:43;;;;;;;14.55;8.75;;;;;;;-1.58;83.0166;95608.48;;;;
2020/01/25 01:42:44;;;;;;;20.25;11;;;;;;;-1.54;83.43652;95602.38;;;;
2020/01/25 01:43:44;;;;;;;20.25;11;;;;;;;-1.54;83.43652;95602.38;;;;
2020/01/25 01:44:53;;;;;;;20.25;11;;;;;;;-1.54;83.43652;95602.38;;;;
2020/01/25 01:45:54;;;;;;;20.25;11;;;;;;;-1.54;83.43652;95602.38;;;;
2020/01/25 01:46:57;;;;;;;20.25;11;;;;;;;-1.54;83.43652;95602.38;;;;
2020/01/25 01:47:58;;;;;;;20.25;11;;;;;;;-1.54;83.43652;95602.38;;;;
2020/01/25 01:48:59;;;;;;;20.25;11;;;;;;;-1.54;83.43652;95602.38;;;;
2020/01/25 01:49:59;;;;;;;20.25;11;;;;;;;-1.54;83.43652;95602.38;;;;
2020/01/25 01:51:00;;;;;;;20.25;11;;;;;;;-1.54;83.43652;95602.38;;;;
2020/01/25 01:52:00;;;;;;;20.25;11;;;;;;;-1.54;83.43652;95602.38;;;;
2020/01/25 01:53:01;;;;;;;17.05;8.750001;;;;;;;-1.62;82.98633;95604.89;;;;
2020/01/25 01:54:02;;;;;;;17.05;8.750001;;;;;;;-1.62;82.98633;95604.89;;;;
2020/01/25 01:55:02;;;;;;;16.5;9.8;;;;;;;-1.58;83.40918;95604.99;;;;
2020/01/25 01:56:07;;;;;;;16.5;9.8;;;;;;;-1.58;83.40918;95604.99;;;;
2020/01/25 01:57:09;;;;;;;16.5;9.8;;;;;;;-1.58;83.40918;95604.99;;;;
2020/01/25 01:58:09;;;;;;;16.5;9.8;;;;;;;-1.58;83.40918;95604.99;;;;
2020/01/25 01:59:10;;;;;;;16.5;9.8;;;;;;;-1.58;83.40918;95604.99;;;;
2020/01/25 02:00:10;;;;;;;16.5;9.8;;;;;;;-1.58;83.40918;95604.99;;;;
2020/01/25 02:01:14;;;;;;;16.5;9.8;;;;;;;-1.58;83.40918;95604.99;;;;
2020/01/25 02:02:30;;;;;;;16.5;9.8;;;;;;;-1.58;83.40918;95604.99;;;;
2020/01/25 02:03:34;;;;;;;16.5;9.8;;;;;;;-1.58;83.40918;95604.99;;;;
2020/01/25 02:04:37;;;;;;;16.5;9.8;;;;;;;-1.58;83.40918;95604.99;;;;
2020/01/25 02:05:37;;;;;;;16.5;9.8;;;;;;;-1.58;83.40918;95604.99;;;;
2020/01/25 02:06:38;;;;;;;14.95;7.5;;;;;;;-1.67;83.0293;95607.17;;;;
2020/01/25 02:07:39;;;;;;;14.95;7.5;;;;;;;-1.67;83.0293;95607.17;;;;
2020/01/25 02:08:39;;;;;;;14.4;8.2;;;;;;;-1.63;83.47363;95603.24;;;;
2020/01/25 02:09:40;;;;;;;14.4;8.2;;;;;;;-1.63;83.47363;95603.24;;;;
2020/01/25 02:10:46;;;;;;;14.4;8.2;;;;;;;-1.63;83.47363;95603.24;;;;
2020/01/25 02:11:46;;;;;;;14.4;8.2;;;;;;;-1.63;83.47363;95603.24;;;;
2020/01/25 02:12:47;;;;;;;14.4;8.2;;;;;;;-1.63;83.47363;95603.24;;;;
2020/01/25 02:13:47;;;;;;;14.4;8.2;;;;;;;-1.63;83.47363;95603.24;;;;
2020/01/25 02:14:48;;;;;;;14.4;8.2;;;;;;;-1.63;83.47363;95603.24;;;;
2020/01/25 02:15:48;;;;;;;14.4;8.2;;;;;;;-1.63;83.47363;95603.24;;;;
2020/01/25 02:16:50;;;;;;;14.4;8.2;;;;;;;-1.63;83.47363;95603.24;;;;
2020/01/25 02:17:51;;;;;;;14.4;8.2;;;;;;;-1.63;83.47363;95603.24;;;;
2020/01/25 02:18:51;;;;;;;14.4;8.2;;;;;;;-1.63;83.47363;95603.24;;;;
2020/01/25 02:19:52;;;;;;;12.5;6.899999;;;;;;;-1.7;83.04297;95604.91;;;;
2020/01/25 02:20:52;;;;;;;12.5;6.899999;;;;;;;-1.7;83.04297;95604.91;;;;
2020/01/25 02:21:54;;;;;;;13.5;7.5;;;;;;;-1.68;83.47266;95600.23;;;;
2020/01/25 02:22:54;;;;;;;13.5;7.5;;;;;;;-1.68;83.47266;95600.23;;;;
2020/01/25 02:23:55;;;;;;;13.5;7.5;;;;;;;-1.68;83.47266;95600.23;;;;
2020/01/25 02:24:55;;;;;;;13.5;7.5;;;;;;;-1.68;83.47266;95600.23;;;;
2020/01/25 02:25:56;;;;;;;13.5;7.5;;;;;;;-1.68;83.47266;95600.23;;;;
2020/01/25 02:26:56;;;;;;;13.5;7.5;;;;;;;-1.68;83.47266;95600.23;;;;
2020/01/25 02:27:57;;;;;;;13.5;7.5;;;;;;;-1.68;83.47266;95600.23;;;;
2020/01/25 02:28:57;;;;;;;13.5;7.5;;;;;;;-1.68;83.47266;95600.23;;;;
2020/01/25 02:29:58;;;;;;;13.5;7.5;;;;;;;-1.68;83.47266;95600.23;;;;
2020/01/25 02:31:05;;;;;;;13.5;7.5;;;;;;;-1.68;83.47266;95600.23;;;;
2020/01/25 02:36:13;;;;;;;13.65;8.000002;;;;;;;-1.71;83.54883;95586.06;;;;
2020/01/25 02:37:18;;;;;;;13.65;8.000002;;;;;;;-1.71;83.54883;95586.06;;;;
2020/01/25 02:38:18;;;;;;;13.65;8.000002;;;;;;;-1.71;83.54883;95586.06;;;;
2020/01/25 02:39:19;;;;;;;13.65;8.000002;;;;;;;-1.71;83.54883;95586.06;;;;
2020/01/25 02:40:19;;;;;;;13.65;8.000002;;;;;;;-1.71;83.54883;95586.06;;;;
2020/01/25 02:41:20;;;;;;;13.65;8.000002;;;;;;;-1.71;83.54883;95586.06;;;;
2020/01/25 02:42:20;;;;;;;13.65;8.000002;;;;;;;-1.71;83.54883;95586.06;;;;
2020/01/25 02:43:23;;;;;;;13.65;8.000002;;;;;;;-1.71;83.54883;95586.06;;;;
2020/01/25 02:44:23;;;;;;;13.65;8.000002;;;;;;;-1.71;83.54883;95586.06;;;;
2020/01/25 02:45:24;;;;;;;13.65;8.000002;;;;;;;-1.71;83.54883;95586.06;;;;
2020/01/25 02:46:24;;;;;;;14.4;6.750001;;;;;;;-1.77;83.10254;95574.27;;;;
2020/01/25 02:47:26;;;;;;;14.4;6.750001;;;;;;;-1.77;83.10254;95574.27;;;;
2020/01/25 02:48:27;;;;;;;13.75;7.2;;;;;;;-1.73;83.56543;95578.77;;;;
2020/01/25 02:49:29;;;;;;;13.75;7.2;;;;;;;-1.73;83.56543;95578.77;;;;
2020/01/25 02:50:30;;;;;;;13.75;7.2;;;;;;;-1.73;83.56543;95578.77;;;;
2020/01/25 02:51:31;;;;;;;13.75;7.2;;;;;;;-1.73;83.56543;95578.77;;;;
2020/01/25 02:52:31;;;;;;;13.75;7.2;;;;;;;-1.73;83.56543;95578.77;;;;
2020/01/25 02:53:32;;;;;;;13.75;7.2;;;;;;;-1.73;83.56543;95578.77;;;;
2020/01/25 02:54:32;;;;;;;13.75;7.2;;;;;;;-1.73;83.56543;95578.77;;;;
2020/01/25 02:55:33;;;;;;;13.75;7.2;;;;;;;-1.73;83.56543;95578.77;;;;
2020/01/25 02:56:33;;;;;;;13.75;7.2;;;;;;;-1.73;83.56543;95578.77;;;;
2020/01/25 02:57:33;;;;;;;13.75;7.2;;;;;;;-1.73;83.56543;95578.77;;;;
2020/01/25 02:58:34;;;;;;;13.75;7.2;;;;;;;-1.73;83.56543;95578.77;;;;
2020/01/25 02:59:34;;;;;;;15.35;6.849999;;;;;;;-1.8;83.11719;95571.91;;;;
2020/01/25 03:00:37;;;;;;;15.35;6.849999;;;;;;;-1.8;83.11719;95571.91;;;;
2020/01/25 03:01:38;;;;;;;15.35;6.849999;;;;;;;-1.8;83.11719;95571.91;;;;
2020/01/25 03:02:39;;;;;;;15.35;6.849999;;;;;;;-1.8;83.11719;95571.91;;;;
2020/01/25 03:03:50;;;;;;;15.35;6.849999;;;;;;;-1.8;83.11719;95571.91;;;;
2020/01/25 03:04:51;;;;;;;15.35;6.849999;;;;;;;-1.8;83.11719;95571.91;;;;
2020/01/25 03:05:51;;;;;;;15.35;6.849999;;;;;;;-1.8;83.11719;95571.91;;;;
2020/01/25 03:06:52;;;;;;;15.35;6.849999;;;;;;;-1.8;83.11719;95571.91;;;;
2020/01/25 03:07:52;;;;;;;15.35;6.849999;;;;;;;-1.8;83.11719;95571.91;;;;
2020/01/25 03:08:53;;;;;;;15.35;6.849999;;;;;;;-1.8;83.11719;95571.91;;;;
2020/01/25 03:09:53;;;;;;;13;6.400001;;;;;;;-1.85;82.80762;95570.64;;;;
2020/01/25 03:10:53;;;;;;;13;6.400001;;;;;;;-1.85;82.80762;95570.64;;;;
2020/01/25 03:11:54;;;;;;;13;6.400001;;;;;;;-1.85;82.80762;95570.64;;;;
2020/01/25 03:12:54;;;;;;;13;6.400001;;;;;;;-1.85;82.80762;95570.64;;;;
2020/01/25 03:13:55;;;;;;;13;6.400001;;;;;;;-1.85;82.80762;95570.64;;;;
2020/01/25 03:14:55;;;;;;;13;6.400001;;;;;;;-1.85;82.80762;95570.64;;;;
2020/01/25 03:15:56;;;;;;;13;6.400001;;;;;;;-1.85;82.80762;95570.64;;;;
2020/01/25 03:16:56;;;;;;;13;6.400001;;;;;;;-1.85;82.80762;95570.64;;;;
2020/01/25 03:17:57;;;;;;;13;6.400001;;;;;;;-1.85;82.80762;95570.64;;;;
2020/01/25 03:18:57;;;;;;;13;6.400001;;;;;;;-1.85;82.80762;95570.64;;;;
2020/01/25 03:19:58;;;;;;;11.8;6.150001;;;;;;;-1.94;82.63379;95570.34;;;;
2020/01/25 03:20:58;;;;;;;11.8;6.150001;;;;;;;-1.94;82.63379;95570.34;;;;
2020/01/25 03:21:59;;;;;;;11.8;6.150001;;;;;;;-1.94;82.63379;95570.34;;;;
2020/01/25 03:22:59;;;;;;;11.8;6.150001;;;;;;;-1.94;82.63379;95570.34;;;;
2020/01/25 03:24:00;;;;;;;11.8;6.150001;;;;;;;-1.94;82.63379;95570.34;;;;
2020/01/25 03:25:00;;;;;;;11.8;6.150001;;;;;;;-1.94;82.63379;95570.34;;;;
2020/01/25 03:26:01;;;;;;;11.8;6.150001;;;;;;;-1.94;82.63379;95570.34;;;;
2020/01/25 03:27:01;;;;;;;11.8;6.150001;;;;;;;-1.94;82.63379;95570.34;;;;
2020/01/25 03:28:02;;;;;;;11.8;6.150001;;;;;;;-1.94;82.63379;95570.34;;;;
2020/01/25 03:29:03;;;;;;;11.8;6.150001;;;;;;;-1.94;82.63379;95570.34;;;;
2020/01/25 03:30:03;;;;;;;11.8;6.150001;;;;;;;-1.94;82.63379;95570.34;;;;
2020/01/25 03:31:04;;;;;;;15.2;6.650001;;;;;;;-1.94;82.48828;95579.5;;;;
2020/01/25 03:32:04;;;;;;;15.2;6.650001;;;;;;;-1.94;82.48828;95579.5;;;;
2020/01/25 03:33:05;;;;;;;15.2;6.650001;;;;;;;-1.94;82.48828;95579.5;;;;
2020/01/25 03:34:05;;;;;;;15.2;6.650001;;;;;;;-1.94;82.48828;95579.5;;;;
2020/01/25 03:35:06;;;;;;;15.2;6.650001;;;;;;;-1.94;82.48828;95579.5;;;;
2020/01/25 03:36:06;;;;;;;15.2;6.650001;;;;;;;-1.94;82.48828;95579.5;;;;
2020/01/25 03:37:07;;;;;;;15.2;6.650001;;;;;;;-1.94;82.48828;95579.5;;;;
2020/01/25 03:38:07;;;;;;;15.2;6.650001;;;;;;;-1.94;82.48828;95579.5;;;;
2020/01/25 03:39:08;;;;;;;15.2;6.650001;;;;;;;-1.94;82.48828;95579.5;;;;
2020/01/25 03:40:09;;;;;;;15.2;6.650001;;;;;;;-1.94;82.48828;95579.5;;;;
2020/01/25 03:41:10;;;;;;;11.25;6.450001;;;;;;;-2.01;82.1543;95567.03;;;;
2020/01/25 03:42:12;;;;;;;11.25;6.450001;;;;;;;-2.01;82.1543;95567.03;;;;
2020/01/25 03:43:13;;;;;;;11.25;6.450001;;;;;;;-2.01;82.1543;95567.03;;;;
2020/01/25 03:44:13;;;;;;;11.25;6.450001;;;;;;;-2.01;82.1543;95567.03;;;;
2020/01/25 03:45:14;;;;;;;11.25;6.450001;;;;;;;-2.01;82.1543;95567.03;;;;
2020/01/25 03:46:32;;;;;;;11.25;6.450001;;;;;;;-2.01;82.1543;95567.03;;;;
2020/01/25 03:47:37;;;;;;;11.25;6.450001;;;;;;;-2.01;82.1543;95567.03;;;;
2020/01/25 03:48:41;;;;;;;11.25;6.450001;;;;;;;-2.01;82.1543;95567.03;;;;
2020/01/25 03:49:43;;;;;;;11.25;6.450001;;;;;;;-2.01;82.1543;95567.03;;;;
2020/01/25 03:50:50;;;;;;;11.25;6.450001;;;;;;;-2.01;82.1543;95567.03;;;;
2020/01/25 03:51:53;;;;;;;13.6;7;;;;;;;-2.04;82.05566;95569.09;;;;
2020/01/25 03:52:55;;;;;;;13.6;7;;;;;;;-2.04;82.05566;95569.09;;;;
2020/01/25 03:53:58;;;;;;;13.6;7;;;;;;;-2.04;82.05566;95569.09;;;;
2020/01/25 03:55:00;;;;;;;13.6;7;;;;;;;-2.04;82.05566;95569.09;;;;
2020/01/25 03:56:00;;;;;;;13.6;7;;;;;;;-2.04;82.05566;95569.09;;;;
2020/01/25 03:57:01;;;;;;;13.6;7;;;;;;;-2.04;82.05566;95569.09;;;;
2020/01/25 03:58:04;;;;;;;13.6;7;;;;;;;-2.04;82.05566;95569.09;;;;
2020/01/25 03:59:06;;;;;;;13.6;7;;;;;;;-2.04;82.05566;95569.09;;;;
2020/01/25 04:00:11;;;;;;;13.6;7;;;;;;;-2.04;82.05566;95569.09;;;;
2020/01/25 04:01:20;;;;;;;13.6;7;;;;;;;-2.04;82.05566;95569.09;;;;
2020/01/25 04:02:21;;;;;;;12.35;5.6;;;;;;;-2.13;81.86133;95563.39;;;;
2020/01/25 04:03:22;;;;;;;12.35;5.6;;;;;;;-2.13;81.86133;95563.39;;;;
2020/01/25 04:04:23;;;;;;;12.35;5.6;;;;;;;-2.13;81.86133;95563.39;;;;
2020/01/25 04:05:23;;;;;;;12.35;5.6;;;;;;;-2.13;81.86133;95563.39;;;;
2020/01/25 04:06:24;;;;;;;12.35;5.6;;;;;;;-2.13;81.86133;95563.39;;;;
2020/01/25 04:07:24;;;;;;;12.35;5.6;;;;;;;-2.13;81.86133;95563.39;;;;
2020/01/25 04:08:25;;;;;;;12.35;5.6;;;;;;;-2.13;81.86133;95563.39;;;;
2020/01/25 04:09:25;;;;;;;12.35;5.6;;;;;;;-2.13;81.86133;95563.39;;;;
2020/01/25 04:10:26;;;;;;;12.35;5.6;;;;;;;-2.13;81.86133;95563.39;;;;
2020/01/25 04:11:26;;;;;;;12.35;5.6;;;;;;;-2.13;81.86133;95563.39;;;;
2020/01/25 04:12:27;;;;;;;12.35;5.6;;;;;;;-2.13;81.86133;95563.39;;;;
2020/01/25 04:13:28;;;;;;;11.8;5.3;;;;;;;-2.15;81.80762;95567.52;;;;
2020/01/25 04:14:28;;;;;;;11.8;5.3;;;;;;;-2.15;81.80762;95567.52;;;;
2020/01/25 04:15:28;;;;;;;11.8;5.3;;;;;;;-2.15;81.80762;95567.52;;;;
2020/01/25 04:16:29;;;;;;;11.8;5.3;;;;;;;-2.15;81.80762;95567.52;;;;
2020/01/25 04:17:29;;;;;;;11.8;5.3;;;;;;;-2.15;81.80762;95567.52;;;;
2020/01/25 04:18:30;;;;;;;11.8;5.3;;;;;;;-2.15;81.80762;95567.52;;;;
2020/01/25 04:19:30;;;;;;;11.8;5.3;;;;;;;-2.15;81.80762;95567.52;;;;
2020/01/25 04:20:31;;;;;;;11.8;5.3;;;;;;;-2.15;81.80762;95567.52;;;;
2020/01/25 04:21:31;;;;;;;11.8;5.3;;;;;;;-2.15;81.80762;95567.52;;;;
2020/01/25 04:22:32;;;;;;;11.8;5.3;;;;;;;-2.15;81.80762;95567.52;;;;
2020/01/25 04:23:32;;;;;;;11.8;5.3;;;;;;;-2.15;81.80762;95567.52;;;;
2020/01/25 04:24:32;;;;;;;11.65;5.45;;;;;;;-2.2;81.80762;95568.47;;;;
2020/01/25 04:25:33;;;;;;;11.65;5.45;;;;;;;-2.2;81.80762;95568.47;;;;
2020/01/25 04:26:34;;;;;;;11.65;5.45;;;;;;;-2.2;81.80762;95568.47;;;;
2020/01/25 04:27:34;;;;;;;11.65;5.45;;;;;;;-2.2;81.80762;95568.47;;;;
2020/01/25 04:28:35;;;;;;;11.65;5.45;;;;;;;-2.2;81.80762;95568.47;;;;
2020/01/25 04:29:37;;;;;;;11.65;5.45;;;;;;;-2.2;81.80762;95568.47;;;;
2020/01/25 04:30:38;;;;;;;11.65;5.45;;;;;;;-2.2;81.80762;95568.47;;;;
2020/01/25 04:31:39;;;;;;;11.65;5.45;;;;;;;-2.2;81.80762;95568.47;;;;
2020/01/25 04:32:39;;;;;;;11.65;5.45;;;;;;;-2.2;81.80762;95568.47;;;;
2020/01/25 04:33:40;;;;;;;11.65;5.45;;;;;;;-2.2;81.80762;95568.47;;;;
2020/01/25 04:34:40;;;;;;;11.6;5.55;;;;;;;-2.11;81.75098;95577.72;;;;
2020/01/25 04:35:41;;;;;;;11.6;5.55;;;;;;;-2.11;81.75098;95577.72;;;;
2020/01/25 04:36:41;;;;;;;11.6;5.55;;;;;;;-2.11;81.75098;95577.72;;;;
2020/01/25 04:37:42;;;;;;;11.6;5.55;;;;;;;-2.11;81.75098;95577.72;;;;
2020/01/25 04:38:42;;;;;;;11.6;5.55;;;;;;;-2.11;81.75098;95577.72;;;;
2020/01/25 04:39:43;;;;;;;11.6;5.55;;;;;;;-2.11;81.75098;95577.72;;;;
2020/01/25 04:40:43;;;;;;;11.6;5.55;;;;;;;-2.11;81.75098;95577.72;;;;
2020/01/25 04:41:44;;;;;;;11.6;5.55;;;;;;;-2.11;81.75098;95577.72;;;;
2020/01/25 04:42:44;;;;;;;11.6;5.55;;;;;;;-2.11;81.75098;95577.72;;;;
2020/01/25 04:43:45;;;;;;;11.6;5.55;;;;;;;-2.11;81.75098;95577.72;;;;
2020/01/25 04:44:46;;;;;;;11.6;5.55;;;;;;;-2.11;81.75098;95577.72;;;;
2020/01/25 04:45:51;;;;;;;12.25;6.45;;;;;;;-2.09;81.54785;95581.05;;;;
2020/01/25 04:46:52;;;;;;;12.25;6.45;;;;;;;-2.09;81.54785;95581.05;;;;
2020/01/25 04:47:54;;;;;;;13.35;7.449999;;;;;;;-2.02;82.05957;95585.64;;;;
2020/01/25 04:48:55;;;;;;;13.35;7.449999;;;;;;;-2.02;82.05957;95585.64;;;;
2020/01/25 04:49:55;;;;;;;13.35;7.449999;;;;;;;-2.02;82.05957;95585.64;;;;
2020/01/25 04:50:56;;;;;;;13.35;7.449999;;;;;;;-2.02;82.05957;95585.64;;;;
2020/01/25 04:51:56;;;;;;;13.35;7.449999;;;;;;;-2.02;82.05957;95585.64;;;;
2020/01/25 04:52:57;;;;;;;13.35;7.449999;;;;;;;-2.02;82.05957;95585.64;;;;
2020/01/25 04:53:57;;;;;;;13.35;7.449999;;;;;;;-2.02;82.05957;95585.64;;;;
2020/01/25 04:54:57;;;;;;;13.35;7.449999;;;;;;;-2.02;82.05957;95585.64;;;;
2020/01/25 04:55:58;;;;;;;13.35;7.449999;;;;;;;-2.02;82.05957;95585.64;;;;
2020/01/25 04:56:58;;;;;;;13.35;7.449999;;;;;;;-2.02;82.05957;95585.64;;;;
2020/01/25 04:58:00;;;;;;;13.35;7.449999;;;;;;;-2.02;82.05957;95585.64;;;;
2020/01/25 04:59:01;;;;;;;13.65;6.55;;;;;;;-2;81.88672;95581.45;;;;
2020/01/25 05:00:03;;;;;;;13.65;6.55;;;;;;;-2;81.88672;95581.45;;;;
2020/01/25 05:01:10;;;;;;;13.65;6.55;;;;;;;-2;81.88672;95581.45;;;;
2020/01/25 05:02:18;;;;;;;13.65;6.55;;;;;;;-2;81.88672;95581.45;;;;
2020/01/25 05:03:19;;;;;;;13.65;6.55;;;;;;;-2;81.88672;95581.45;;;;
2020/01/25 05:04:22;;;;;;;13.65;6.55;;;;;;;-2;81.88672;95581.45;;;;
2020/01/25 05:05:28;;;;;;;13.65;6.55;;;;;;;-2;81.88672;95581.45;;;;
2020/01/25 05:07:05;;;;;;;13.65;6.55;;;;;;;-2;81.88672;95581.45;;;;
2020/01/25 05:08:05;;;;;;;13.65;6.55;;;;;;;-2;81.88672;95581.45;;;;
2020/01/25 05:09:06;;;;;;;11.9;6.5;;;;;;;-1.96;81.85254;95585.96;;;;
2020/01/25 05:10:16;;;;;;;11.9;6.5;;;;;;;-1.96;81.85254;95585.96;;;;
2020/01/25 05:11:16;;;;;;;11.9;6.5;;;;;;;-1.96;81.85254;95585.96;;;;
2020/01/25 05:12:17;;;;;;;11.9;6.5;;;;;;;-1.96;81.85254;95585.96;;;;
2020/01/25 05:13:17;;;;;;;11.9;6.5;;;;;;;-1.96;81.85254;95585.96;;;;
2020/01/25 05:14:18;;;;;;;11.9;6.5;;;;;;;-1.96;81.85254;95585.96;;;;
2020/01/25 05:15:18;;;;;;;11.9;6.5;;;;;;;-1.96;81.85254;95585.96;;;;
2020/01/25 05:16:19;;;;;;;11.9;6.5;;;;;;;-1.96;81.85254;95585.96;;;;
2020/01/25 05:17:19;;;;;;;11.9;6.5;;;;;;;-1.96;81.85254;95585.96;;;;
2020/01/25 05:18:19;;;;;;;11.9;6.5;;;;;;;-1.96;81.85254;95585.96;;;;
2020/01/25 05:19:20;;;;;;;11.4;6.349999;;;;;;;-1.96;81.68652;95601.4;;;;
2020/01/25 05:20:20;;;;;;;11.4;6.349999;;;;;;;-1.96;81.68652;95601.4;;;;
2020/01/25 05:21:21;;;;;;;11.4;6.349999;;;;;;;-1.96;81.68652;95601.4;;;;
2020/01/25 05:22:21;;;;;;;11.4;6.349999;;;;;;;-1.96;81.68652;95601.4;;;;
2020/01/25 05:23:22;;;;;;;11.4;6.349999;;;;;;;-1.96;81.68652;95601.4;;;;
2020/01/25 05:24:22;;;;;;;11.4;6.349999;;;;;;;-1.96;81.68652;95601.4;;;;
2020/01/25 05:25:23;;;;;;;11.4;6.349999;;;;;;;-1.96;81.68652;95601.4;;;;
2020/01/25 05:26:23;;;;;;;11.4;6.349999;;;;;;;-1.96;81.68652;95601.4;;;;
2020/01/25 05:27:24;;;;;;;11.4;6.349999;;;;;;;-1.96;81.68652;95601.4;;;;
2020/01/25 05:28:24;;;;;;;11.4;6.349999;;;;;;;-1.96;81.68652;95601.4;;;;
2020/01/25 05:29:24;;;;;;;11.4;6.349999;;;;;;;-1.96;81.68652;95601.4;;;;
2020/01/25 05:30:25;;;;;;;13.55;7.2;;;;;;;-1.77;81.56543;95606.51;;;;
2020/01/25 05:31:26;;;;;;;13.55;7.2;;;;;;;-1.77;81.56543;95606.51;;;;
2020/01/25 05:32:26;;;;;;;13.55;7.2;;;;;;;-1.77;81.56543;95606.51;;;;
2020/01/25 05:33:26;;;;;;;13.55;7.2;;;;;;;-1.77;81.56543;95606.51;;;;
2020/01/25 05:34:27;;;;;;;13.55;7.2;;;;;;;-1.77;81.56543;95606.51;;;;
2020/01/25 05:35:27;;;;;;;13.55;7.2;;;;;;;-1.77;81.56543;95606.51;;;;
2020/01/25 05:36:28;;;;;;;13.55;7.2;;;;;;;-1.77;81.56543;95606.51;;;;
2020/01/25 05:37:28;;;;;;;13.55;7.2;;;;;;;-1.77;81.56543;95606.51;;;;
2020/01/25 05:38:29;;;;;;;13.55;7.2;;;;;;;-1.77;81.56543;95606.51;;;;
2020/01/25 05:39:29;;;;;;;13.55;7.2;;;;;;;-1.77;81.56543;95606.51;;;;
2020/01/25 05:40:30;;;;;;;14.95;7.35;;;;;;;-1.61;81.47363;95598.21;;;;
2020/01/25 05:41:30;;;;;;;14.95;7.35;;;;;;;-1.61;81.47363;95598.21;;;;
2020/01/25 05:42:30;;;;;;;14.95;7.35;;;;;;;-1.61;81.47363;95598.21;;;;
2020/01/25 05:43:31;;;;;;;14.95;7.35;;;;;;;-1.61;81.47363;95598.21;;;;
2020/01/25 05:44:31;;;;;;;14.95;7.35;;;;;;;-1.61;81.47363;95598.21;;;;
2020/01/25 05:45:32;;;;;;;14.95;7.35;;;;;;;-1.61;81.47363;95598.21;;;;
2020/01/25 05:46:45;;;;;;;14.95;7.35;;;;;;;-1.61;81.47363;95598.21;;;;
2020/01/25 05:47:47;;;;;;;14.95;7.35;;;;;;;-1.61;81.47363;95598.21;;;;
2020/01/25 05:48:47;;;;;;;14.95;7.35;;;;;;;-1.61;81.47363;95598.21;;;;
2020/01/25 05:49:48;;;;;;;14.95;7.35;;;;;;;-1.61;81.47363;95598.21;;;;
2020/01/25 05:50:48;;;;;;;14.95;7.35;;;;;;;-1.61;81.47363;95598.21;;;;
2020/01/25 05:51:49;;;;;;;15.4;7.75;;;;;;;-1.39;81.38184;95604.33;;;;
2020/01/25 05:52:49;;;;;;;15.4;7.75;;;;;;;-1.39;81.38184;95604.33;;;;